createdAt,value
2019-02-06T00:00:26.497Z,-7.68
2019-02-06T00:01:31.823Z,-7.57
2019-02-06T00:02:39.885Z,-7.52
2019-02-06T00:03:47.901Z,-7.40
2019-02-06T00:04:55.974Z,-7.30
2019-02-06T00:06:04.027Z,-7.36
2019-02-06T00:07:12.062Z,-7.26
2019-02-06T00:08:20.131Z,-7.25
2019-02-06T00:09:28.151Z,-7.23
2019-02-06T00:10:36.235Z,-7.22
2019-02-06T00:11:44.284Z,-7.08
2019-02-06T00:12:52.333Z,-7.12
2019-02-06T00:14:00.397Z,-7.12
2019-02-06T00:15:08.431Z,-7.00
2019-02-06T00:16:16.484Z,-7.07
2019-02-06T00:17:24.532Z,-7.00
2019-02-06T00:18:32.581Z,-6.97
2019-02-06T00:19:40.630Z,-6.95
2019-02-06T00:20:48.688Z,-6.89
2019-02-06T00:21:56.725Z,-6.76
2019-02-06T00:23:04.803Z,-6.77
2019-02-06T00:24:12.862Z,-6.68
2019-02-06T00:25:20.889Z,-6.68
2019-02-06T00:26:28.958Z,-6.59
2019-02-06T00:27:36.992Z,-6.52
2019-02-06T00:28:45.043Z,-6.50
2019-02-06T00:29:53.106Z,-6.54
2019-02-06T00:31:01.188Z,-6.46
2019-02-06T00:32:09.203Z,-6.49
2019-02-06T00:33:17.270Z,-6.43
2019-02-06T00:34:25.290Z,-6.40
2019-02-06T00:35:33.361Z,-6.34
2019-02-06T00:36:41.395Z,-6.34
2019-02-06T00:37:49.454Z,-6.37
2019-02-06T00:38:57.505Z,-6.37
2019-02-06T00:40:05.566Z,-6.32
2019-02-06T00:41:13.626Z,-6.32
2019-02-06T00:42:21.654Z,-6.23
2019-02-06T00:43:29.695Z,-6.29
2019-02-06T00:44:37.769Z,-6.18
2019-02-06T00:45:45.803Z,-6.21
2019-02-06T00:46:53.877Z,-6.11
2019-02-06T00:48:01.918Z,-6.13
2019-02-06T00:49:09.984Z,-6.07
2019-02-06T00:50:18.022Z,-6.07
2019-02-06T00:51:26.062Z,-6.11
2019-02-06T00:52:34.131Z,-6.08
2019-02-06T00:53:42.160Z,-6.03
2019-02-06T00:54:50.226Z,-6.10
2019-02-06T00:55:58.279Z,-6.10
2019-02-06T00:57:06.335Z,-6.07
2019-02-06T00:58:14.397Z,-6.05
2019-02-06T00:59:22.460Z,-6.10
2019-02-06T01:00:30.493Z,-6.10
2019-02-06T01:01:38.546Z,-6.00
2019-02-06T01:02:46.609Z,-6.05
2019-02-06T01:03:54.681Z,-6.10
2019-02-06T01:05:02.708Z,-6.05
2019-02-06T01:06:10.765Z,-6.04
2019-02-06T01:07:18.886Z,-6.01
2019-02-06T01:08:26.868Z,-6.03
2019-02-06T01:09:34.905Z,-6.04
2019-02-06T01:10:42.965Z,-6.08
2019-02-06T01:11:51.023Z,-6.01
2019-02-06T01:12:59.081Z,-6.04
2019-02-06T01:14:07.138Z,-6.07
2019-02-06T01:15:15.197Z,-6.04
2019-02-06T01:16:23.201Z,-6.04
2019-02-06T01:17:31.275Z,-6.07
2019-02-06T01:18:39.306Z,-6.05
2019-02-06T01:19:47.363Z,-6.07
2019-02-06T01:20:55.455Z,-6.05
2019-02-06T01:22:03.591Z,-6.10
2019-02-06T01:23:11.559Z,-6.18
2019-02-06T01:24:19.589Z,-6.10
2019-02-06T01:25:27.631Z,-6.11
2019-02-06T01:26:35.678Z,-6.01
2019-02-06T01:27:43.748Z,-6.03
2019-02-06T01:28:51.799Z,-6.11
2019-02-06T01:29:59.858Z,-6.15
2019-02-06T01:31:07.898Z,-6.21
2019-02-06T01:32:15.961Z,-6.11
2019-02-06T01:33:24.004Z,-6.22
2019-02-06T01:34:32.062Z,-6.32
2019-02-06T01:35:49.395Z,-6.42
2019-02-06T01:36:48.162Z,-6.37
2019-02-06T01:37:56.194Z,-6.50
2019-02-06T01:39:04.255Z,-6.50
2019-02-06T01:40:12.300Z,-6.50
2019-02-06T01:41:20.359Z,-6.59
2019-02-06T01:42:28.426Z,-6.55
2019-02-06T01:43:36.466Z,-6.66
2019-02-06T01:44:44.498Z,-6.62
2019-02-06T01:45:52.556Z,-6.59
2019-02-06T01:47:00.618Z,-6.66
2019-02-06T01:48:08.679Z,-6.69
2019-02-06T01:49:16.714Z,-6.74
2019-02-06T01:50:24.755Z,-6.76
2019-02-06T01:51:32.817Z,-6.79
2019-02-06T01:52:40.872Z,-6.79
2019-02-06T01:53:48.948Z,-6.82
2019-02-06T01:54:56.987Z,-6.86
2019-02-06T01:56:05.028Z,-6.83
2019-02-06T01:57:13.088Z,-6.94
2019-02-06T01:58:21.141Z,-6.87
2019-02-06T01:59:29.209Z,-6.87
2019-02-06T02:00:37.243Z,-6.94
2019-02-06T02:01:45.292Z,-6.97
2019-02-06T02:02:53.359Z,-6.97
2019-02-06T02:04:01.402Z,-7.04
2019-02-06T02:05:09.489Z,-6.98
2019-02-06T02:06:17.503Z,-7.01
2019-02-06T02:07:25.555Z,-7.02
2019-02-06T02:08:33.593Z,-6.89
2019-02-06T02:09:41.644Z,-6.87
2019-02-06T02:10:49.706Z,-6.87
2019-02-06T02:11:57.763Z,-6.92
2019-02-06T02:13:05.796Z,-6.97
2019-02-06T02:14:13.860Z,-6.98
2019-02-06T02:15:21.907Z,-6.91
2019-02-06T02:16:29.995Z,-6.87
2019-02-06T02:17:38.026Z,-6.86
2019-02-06T02:18:46.052Z,-6.83
2019-02-06T02:19:54.109Z,-6.87
2019-02-06T02:21:02.151Z,-6.86
2019-02-06T02:22:10.219Z,-6.84
2019-02-06T02:23:18.265Z,-6.89
2019-02-06T02:24:26.334Z,-6.77
2019-02-06T02:25:34.367Z,-6.76
2019-02-06T02:26:42.443Z,-6.77
2019-02-06T02:27:50.479Z,-6.73
2019-02-06T02:28:58.527Z,-6.73
2019-02-06T02:30:06.565Z,-6.73
2019-02-06T02:31:14.648Z,-6.76
2019-02-06T02:32:22.700Z,-6.86
2019-02-06T02:33:30.720Z,-6.92
2019-02-06T02:34:38.794Z,-6.87
2019-02-06T02:35:46.840Z,-6.91
2019-02-06T02:36:54.929Z,-6.91
2019-02-06T02:38:02.943Z,-6.89
2019-02-06T02:39:10.979Z,-6.89
2019-02-06T02:40:19.029Z,-6.92
2019-02-06T02:41:27.089Z,-7.01
2019-02-06T02:42:35.149Z,-6.97
2019-02-06T02:43:43.191Z,-7.05
2019-02-06T02:44:51.226Z,-7.04
2019-02-06T02:45:59.277Z,-7.04
2019-02-06T02:47:07.381Z,-7.11
2019-02-06T02:48:15.385Z,-7.12
2019-02-06T02:49:23.452Z,-7.12
2019-02-06T02:50:31.519Z,-7.08
2019-02-06T02:51:39.567Z,-6.97
2019-02-06T02:52:47.614Z,-7.04
2019-02-06T02:53:55.655Z,-7.11
2019-02-06T02:55:03.722Z,-6.97
2019-02-06T02:56:11.748Z,-6.95
2019-02-06T02:57:19.897Z,-7.08
2019-02-06T02:58:27.854Z,-7.02
2019-02-06T02:59:35.920Z,-7.05
2019-02-06T03:00:43.959Z,-6.98
2019-02-06T03:01:51.994Z,-7.04
2019-02-06T03:03:00.060Z,-6.95
2019-02-06T03:04:08.113Z,-6.97
2019-02-06T03:05:16.151Z,-7.01
2019-02-06T03:06:27.951Z,-7.07
2019-02-06T03:07:32.335Z,-7.04
2019-02-06T03:08:40.324Z,-6.94
2019-02-06T03:09:48.373Z,-6.86
2019-02-06T03:10:56.404Z,-6.94
2019-02-06T03:12:04.474Z,-6.92
2019-02-06T03:13:12.515Z,-6.91
2019-02-06T03:14:20.560Z,-6.95
2019-02-06T03:15:28.645Z,-6.89
2019-02-06T03:16:36.681Z,-6.86
2019-02-06T03:17:44.828Z,-6.71
2019-02-06T03:18:52.782Z,-6.73
2019-02-06T03:20:00.836Z,-6.76
2019-02-06T03:21:08.880Z,-6.80
2019-02-06T03:22:16.921Z,-6.77
2019-02-06T03:23:24.992Z,-6.77
2019-02-06T03:24:33.033Z,-6.77
2019-02-06T03:25:41.075Z,-6.73
2019-02-06T03:26:49.136Z,-6.73
2019-02-06T03:27:57.232Z,-6.76
2019-02-06T03:29:05.244Z,-6.69
2019-02-06T03:30:13.293Z,-6.71
2019-02-06T03:31:21.344Z,-6.61
2019-02-06T03:32:29.396Z,-6.58
2019-02-06T03:33:37.457Z,-6.59
2019-02-06T03:34:45.514Z,-6.58
2019-02-06T03:35:53.544Z,-6.58
2019-02-06T03:37:01.578Z,-6.58
2019-02-06T03:38:09.648Z,-6.49
2019-02-06T03:39:17.700Z,-6.54
2019-02-06T03:40:25.843Z,-6.61
2019-02-06T03:41:33.805Z,-6.61
2019-02-06T03:42:41.833Z,-6.61
2019-02-06T03:43:49.913Z,-6.73
2019-02-06T03:44:57.980Z,-6.54
2019-02-06T03:46:06.001Z,-6.73
2019-02-06T03:47:14.064Z,-6.65
2019-02-06T03:48:22.130Z,-6.69
2019-02-06T03:49:30.192Z,-6.63
2019-02-06T03:50:38.219Z,-6.65
2019-02-06T03:51:46.260Z,-6.63
2019-02-06T03:52:54.317Z,-6.58
2019-02-06T03:54:02.357Z,-6.49
2019-02-06T03:55:10.420Z,-6.49
2019-02-06T03:56:18.481Z,-6.50
2019-02-06T03:57:26.985Z,-6.62
2019-02-06T03:58:34.591Z,-6.55
2019-02-06T03:59:42.630Z,-6.55
2019-02-06T04:00:50.692Z,-6.50
2019-02-06T04:01:58.722Z,-6.55
2019-02-06T04:03:06.793Z,-6.50
2019-02-06T04:04:14.852Z,-6.52
2019-02-06T04:05:22.878Z,-6.44
2019-02-06T04:06:30.941Z,-6.50
2019-02-06T04:07:38.985Z,-6.49
2019-02-06T04:08:47.058Z,-6.43
2019-02-06T04:09:55.102Z,-6.52
2019-02-06T04:11:03.204Z,-6.43
2019-02-06T04:12:11.195Z,-6.37
2019-02-06T04:13:19.247Z,-6.40
2019-02-06T04:14:27.311Z,-6.40
2019-02-06T04:15:35.345Z,-6.37
2019-02-06T04:16:43.431Z,-6.37
2019-02-06T04:17:54.276Z,-6.36
2019-02-06T04:18:59.495Z,-6.25
2019-02-06T04:20:07.560Z,-6.25
2019-02-06T04:21:15.601Z,-6.16
2019-02-06T04:22:23.676Z,-6.31
2019-02-06T04:23:31.718Z,-6.18
2019-02-06T04:24:39.758Z,-6.16
2019-02-06T04:25:47.804Z,-6.15
2019-02-06T04:26:55.864Z,-6.15
2019-02-06T04:28:03.929Z,-6.16
2019-02-06T04:29:11.954Z,-6.21
2019-02-06T04:30:20.021Z,-6.13
2019-02-06T04:31:28.098Z,-6.10
2019-02-06T04:32:36.122Z,-6.08
2019-02-06T04:33:44.161Z,-6.13
2019-02-06T04:34:52.215Z,-6.11
2019-02-06T04:36:00.270Z,-6.00
2019-02-06T04:37:08.321Z,-5.98
2019-02-06T04:38:16.376Z,-6.08
2019-02-06T04:39:24.428Z,-6.08
2019-02-06T04:40:32.464Z,-6.00
2019-02-06T04:41:40.532Z,-6.00
2019-02-06T04:42:48.596Z,-5.97
2019-02-06T04:43:56.646Z,-5.90
2019-02-06T04:45:04.718Z,-5.94
2019-02-06T04:46:12.741Z,-6.00
2019-02-06T04:47:20.809Z,-6.01
2019-02-06T04:48:31.906Z,-6.03
2019-02-06T04:49:36.929Z,-5.92
2019-02-06T04:50:44.943Z,-6.00
2019-02-06T04:51:53.005Z,-5.92
2019-02-06T04:53:01.052Z,-5.93
2019-02-06T04:54:09.112Z,-6.01
2019-02-06T04:55:17.149Z,-5.98
2019-02-06T04:56:25.208Z,-5.98
2019-02-06T04:57:33.269Z,-6.04
2019-02-06T04:58:41.305Z,-5.98
2019-02-06T04:59:49.382Z,-5.98
2019-02-06T05:00:57.413Z,-6.03
2019-02-06T05:02:05.461Z,-6.03
2019-02-06T05:03:13.544Z,-6.01
2019-02-06T05:04:21.556Z,-6.03
2019-02-06T05:05:29.657Z,-5.90
2019-02-06T05:06:37.682Z,-6.01
2019-02-06T05:07:45.729Z,-5.93
2019-02-06T05:08:53.789Z,-6.00
2019-02-06T05:10:01.849Z,-5.93
2019-02-06T05:11:15.335Z,-5.92
2019-02-06T05:12:17.939Z,-6.05
2019-02-06T05:13:26.034Z,-6.04
2019-02-06T05:14:34.069Z,-5.92
2019-02-06T05:15:42.087Z,-5.98
2019-02-06T05:16:50.146Z,-5.92
2019-02-06T05:17:58.196Z,-6.05
2019-02-06T05:19:06.250Z,-6.04
2019-02-06T05:20:14.309Z,-6.03
2019-02-06T05:21:22.401Z,-6.00
2019-02-06T05:22:30.411Z,-6.07
2019-02-06T05:23:38.466Z,-6.04
2019-02-06T05:24:46.521Z,-6.00
2019-02-06T05:25:54.552Z,-6.00
2019-02-06T05:27:02.608Z,-6.00
2019-02-06T05:28:10.649Z,-6.04
2019-02-06T05:29:18.722Z,-6.05
2019-02-06T05:30:26.773Z,-6.01
2019-02-06T05:31:34.815Z,-6.05
2019-02-06T05:32:43.082Z,-6.01
2019-02-06T05:33:50.912Z,-5.87
2019-02-06T05:34:58.998Z,-5.90
2019-02-06T05:36:07.029Z,-5.90
2019-02-06T05:37:15.054Z,-5.93
2019-02-06T05:38:23.111Z,-5.90
2019-02-06T05:39:31.162Z,-5.90
2019-02-06T05:40:39.222Z,-5.90
2019-02-06T05:41:47.296Z,-5.90
2019-02-06T05:42:55.334Z,-5.90
2019-02-06T05:44:03.409Z,-5.90
2019-02-06T05:45:11.471Z,-5.87
2019-02-06T05:46:19.503Z,-5.97
2019-02-06T05:47:27.551Z,-5.90
2019-02-06T05:48:35.584Z,-5.87
2019-02-06T05:49:43.651Z,-5.90
2019-02-06T05:50:51.686Z,-5.92
2019-02-06T05:51:59.739Z,-5.93
2019-02-06T05:53:07.791Z,-5.89
2019-02-06T05:54:15.855Z,-5.89
2019-02-06T05:55:23.916Z,-5.84
2019-02-06T05:56:31.945Z,-5.83
2019-02-06T05:57:40.010Z,-5.82
2019-02-06T05:58:48.079Z,-5.72
2019-02-06T05:59:56.121Z,-5.69
2019-02-06T06:01:04.160Z,-5.75
2019-02-06T06:02:12.204Z,-5.75
2019-02-06T06:03:20.276Z,-5.71
2019-02-06T06:04:28.311Z,-5.72
2019-02-06T06:05:36.383Z,-5.69
2019-02-06T06:06:44.475Z,-5.71
2019-02-06T06:07:52.490Z,-5.71
2019-02-06T06:09:00.539Z,-5.66
2019-02-06T06:10:08.853Z,-5.68
2019-02-06T06:11:16.639Z,-5.59
2019-02-06T06:12:25.067Z,-5.71
2019-02-06T06:13:32.777Z,-5.61
2019-02-06T06:14:40.946Z,-5.50
2019-02-06T06:15:48.862Z,-5.47
2019-02-06T06:16:56.883Z,-5.54
2019-02-06T06:18:04.939Z,-5.57
2019-02-06T06:19:12.982Z,-5.53
2019-02-06T06:20:21.054Z,-5.51
2019-02-06T06:21:29.083Z,-5.47
2019-02-06T06:22:37.153Z,-5.50
2019-02-06T06:23:45.209Z,-5.51
2019-02-06T06:24:53.263Z,-5.51
2019-02-06T06:26:01.299Z,-5.54
2019-02-06T06:27:09.357Z,-5.50
2019-02-06T06:28:17.422Z,-5.50
2019-02-06T06:29:25.464Z,-5.50
2019-02-06T06:30:33.505Z,-5.53
2019-02-06T06:31:41.596Z,-5.53
2019-02-06T06:32:49.636Z,-5.55
2019-02-06T06:33:57.828Z,-5.55
2019-02-06T06:35:05.872Z,-5.50
2019-02-06T06:36:13.785Z,-5.54
2019-02-06T06:37:21.832Z,-5.54
2019-02-06T06:38:29.895Z,-5.57
2019-02-06T06:39:37.944Z,-5.50
2019-02-06T06:40:46.113Z,-5.47
2019-02-06T06:41:54.368Z,-5.50
2019-02-06T06:43:02.268Z,-5.50
2019-02-06T06:44:10.323Z,-5.51
2019-02-06T06:45:18.438Z,-5.50
2019-02-06T06:46:26.259Z,-5.50
2019-02-06T06:47:34.297Z,-5.39
2019-02-06T06:48:42.348Z,-5.41
2019-02-06T06:49:50.408Z,-5.43
2019-02-06T06:50:58.485Z,-5.41
2019-02-06T06:52:06.587Z,-5.46
2019-02-06T06:53:14.583Z,-5.41
2019-02-06T06:54:22.615Z,-5.39
2019-02-06T06:55:30.717Z,-5.30
2019-02-06T06:56:39.281Z,-5.33
2019-02-06T06:57:47.213Z,-5.30
2019-02-06T06:58:55.319Z,-5.29
2019-02-06T07:00:03.390Z,-5.30
2019-02-06T07:01:11.159Z,-5.23
2019-02-06T07:02:18.999Z,-5.19
2019-02-06T07:03:27.036Z,-5.25
2019-02-06T07:04:35.099Z,-5.18
2019-02-06T07:05:43.185Z,-5.13
2019-02-06T07:06:51.209Z,-5.14
2019-02-06T07:08:09.024Z,-5.18
2019-02-06T07:09:07.323Z,-5.10
2019-02-06T07:10:15.575Z,-5.10
2019-02-06T07:11:23.436Z,-5.14
2019-02-06T07:12:31.500Z,-5.03
2019-02-06T07:13:39.855Z,-5.00
2019-02-06T07:14:47.592Z,-4.99
2019-02-06T07:15:55.633Z,-5.04
2019-02-06T07:17:03.669Z,-4.97
2019-02-06T07:18:11.720Z,-4.90
2019-02-06T07:19:19.768Z,-4.96
2019-02-06T07:20:27.882Z,-4.85
2019-02-06T07:21:35.902Z,-4.75
2019-02-06T07:22:43.925Z,-4.83
2019-02-06T07:23:52.511Z,-4.78
2019-02-06T07:25:00.040Z,-4.78
2019-02-06T07:26:08.083Z,-4.69
2019-02-06T07:27:16.123Z,-4.71
2019-02-06T07:28:24.274Z,-4.69
2019-02-06T07:29:32.261Z,-4.63
2019-02-06T07:30:40.609Z,-4.54
2019-02-06T07:31:48.377Z,-4.60
2019-02-06T07:32:56.826Z,-4.56
2019-02-06T07:34:04.498Z,-4.56
2019-02-06T07:35:12.529Z,-4.61
2019-02-06T07:36:20.575Z,-4.58
2019-02-06T07:37:28.900Z,-4.58
2019-02-06T07:38:36.673Z,-4.54
2019-02-06T07:39:44.885Z,-4.54
2019-02-06T07:40:52.894Z,-4.50
2019-02-06T07:42:01.060Z,-4.51
2019-02-06T07:43:09.467Z,-4.43
2019-02-06T07:44:16.970Z,-4.40
2019-02-06T07:45:25.033Z,-4.39
2019-02-06T07:46:33.061Z,-4.35
2019-02-06T07:47:41.129Z,-4.21
2019-02-06T07:48:49.183Z,-4.22
2019-02-06T07:49:57.539Z,-4.11
2019-02-06T07:51:05.645Z,-4.11
2019-02-06T07:52:13.296Z,-4.01
2019-02-06T07:53:21.372Z,-3.93
2019-02-06T07:54:29.689Z,-3.94
2019-02-06T07:55:37.779Z,-3.90
2019-02-06T07:56:45.516Z,-3.86
2019-02-06T07:57:53.584Z,-3.76
2019-02-06T07:59:01.677Z,-3.76
2019-02-06T08:00:09.731Z,-3.75
2019-02-06T08:01:17.741Z,-3.57
2019-02-06T08:02:25.819Z,-3.63
2019-02-06T08:03:33.861Z,-3.62
2019-02-06T08:04:41.930Z,-3.59
2019-02-06T08:05:49.935Z,-3.75
2019-02-06T08:06:58.192Z,-3.64
2019-02-06T08:08:06.476Z,-3.71
2019-02-06T08:09:15.825Z,-3.76
2019-02-06T08:10:22.672Z,-3.66
2019-02-06T08:11:30.326Z,-3.66
2019-02-06T08:12:38.285Z,-3.59
2019-02-06T08:13:46.332Z,-3.63
2019-02-06T08:14:54.763Z,-3.54
2019-02-06T08:16:02.422Z,-3.48
2019-02-06T08:17:10.534Z,-3.49
2019-02-06T08:18:18.568Z,-3.42
2019-02-06T08:19:26.617Z,-3.43
2019-02-06T08:20:34.689Z,-3.41
2019-02-06T08:21:42.716Z,-3.42
2019-02-06T08:22:50.768Z,-3.39
2019-02-06T08:23:58.840Z,-3.42
2019-02-06T08:25:06.874Z,-3.41
2019-02-06T08:26:15.011Z,-3.41
2019-02-06T08:27:22.986Z,-3.39
2019-02-06T08:28:31.077Z,-3.36
2019-02-06T08:29:39.112Z,-3.39
2019-02-06T08:30:47.595Z,-3.23
2019-02-06T08:31:55.626Z,-3.27
2019-02-06T08:33:03.354Z,-3.18
2019-02-06T08:34:11.302Z,-3.14
2019-02-06T08:35:19.573Z,-2.94
2019-02-06T08:36:27.612Z,-2.94
2019-02-06T08:37:35.578Z,-2.88
2019-02-06T08:38:47.553Z,-2.81
2019-02-06T08:39:51.590Z,-2.79
2019-02-06T08:40:59.720Z,-2.73
2019-02-06T08:42:07.703Z,-2.78
2019-02-06T08:43:15.729Z,-2.58
2019-02-06T08:44:23.804Z,-2.56
2019-02-06T08:45:31.829Z,-2.50
2019-02-06T08:46:39.894Z,-2.45
2019-02-06T08:47:48.033Z,-2.42
2019-02-06T08:48:56.013Z,-2.37
2019-02-06T08:50:04.046Z,-2.39
2019-02-06T08:51:12.178Z,-2.35
2019-02-06T08:52:20.188Z,-2.29
2019-02-06T08:53:28.586Z,-2.32
2019-02-06T08:54:36.342Z,-2.35
2019-02-06T08:55:44.322Z,-2.27
2019-02-06T08:56:52.405Z,-2.34
2019-02-06T08:58:00.470Z,-2.26
2019-02-06T08:59:09.161Z,-2.16
2019-02-06T09:00:16.539Z,-2.15
2019-02-06T09:01:25.024Z,-2.18
2019-02-06T09:02:32.672Z,-2.05
2019-02-06T09:03:41.011Z,-1.97
2019-02-06T09:04:55.663Z,-2.05
2019-02-06T09:05:56.864Z,-1.97
2019-02-06T09:07:04.978Z,-1.94
2019-02-06T09:08:12.949Z,-1.94
2019-02-06T09:09:20.992Z,-1.95
2019-02-06T09:10:29.353Z,-1.88
2019-02-06T09:11:37.111Z,-1.82
2019-02-06T09:12:45.195Z,-1.77
2019-02-06T09:13:53.207Z,-1.76
2019-02-06T09:15:01.386Z,-1.74
2019-02-06T09:16:09.690Z,-1.74
2019-02-06T09:17:17.482Z,-1.69
2019-02-06T09:18:25.704Z,-1.61
2019-02-06T09:19:33.870Z,-1.51
2019-02-06T09:20:41.619Z,-1.51
2019-02-06T09:21:49.632Z,-1.45
2019-02-06T09:22:57.777Z,-1.40
2019-02-06T09:24:05.728Z,-1.43
2019-02-06T09:25:13.785Z,-1.56
2019-02-06T09:26:21.854Z,-1.56
2019-02-06T09:27:29.910Z,-1.62
2019-02-06T09:28:38.100Z,-1.54
2019-02-06T09:29:45.999Z,-1.49
2019-02-06T09:30:54.097Z,-1.43
2019-02-06T09:32:02.088Z,-1.43
2019-02-06T09:33:10.315Z,-1.38
2019-02-06T09:34:19.896Z,-1.27
2019-02-06T09:35:26.299Z,-1.31
2019-02-06T09:36:34.322Z,-1.35
2019-02-06T09:37:42.358Z,-1.38
2019-02-06T09:38:50.458Z,-1.27
2019-02-06T09:39:58.548Z,-1.30
2019-02-06T09:41:06.563Z,-1.37
2019-02-06T09:42:14.610Z,-1.46
2019-02-06T09:43:22.708Z,-1.51
2019-02-06T09:44:30.767Z,-1.37
2019-02-06T09:45:38.790Z,-1.45
2019-02-06T09:46:46.850Z,-1.25
2019-02-06T09:47:55.027Z,-1.09
2019-02-06T09:49:02.943Z,-1.05
2019-02-06T09:50:11.025Z,-1.01
2019-02-06T09:51:19.405Z,-0.89
2019-02-06T09:52:28.830Z,-0.73
2019-02-06T09:53:35.195Z,-0.65
2019-02-06T09:54:43.224Z,-0.52
2019-02-06T09:55:53.243Z,-0.52
2019-02-06T09:56:59.550Z,-0.49
2019-02-06T09:58:07.714Z,-0.57
2019-02-06T09:59:16.552Z,-0.58
2019-02-06T10:00:23.576Z,-0.43
2019-02-06T10:01:31.572Z,-0.69
2019-02-06T10:02:39.597Z,-0.73
2019-02-06T10:03:47.738Z,-0.76
2019-02-06T10:04:55.899Z,-0.61
2019-02-06T10:06:03.847Z,-0.49
2019-02-06T10:07:12.068Z,-0.51
2019-02-06T10:08:20.069Z,-0.40
2019-02-06T10:09:28.078Z,-0.34
2019-02-06T10:10:36.003Z,-0.33
2019-02-06T10:11:44.065Z,-0.40
2019-02-06T10:12:52.427Z,-0.34
2019-02-06T10:14:00.827Z,-0.37
2019-02-06T10:15:08.268Z,-0.49
2019-02-06T10:16:16.310Z,-0.57
2019-02-06T10:17:24.383Z,-0.61
2019-02-06T10:18:32.445Z,-0.54
2019-02-06T10:19:42.388Z,-0.57
2019-02-06T10:20:48.517Z,-0.57
2019-02-06T10:21:56.585Z,-0.54
2019-02-06T10:23:05.020Z,-0.52
2019-02-06T10:24:12.780Z,-0.40
2019-02-06T10:25:20.878Z,-0.39
2019-02-06T10:26:29.119Z,-0.31
2019-02-06T10:27:36.925Z,-0.31
2019-02-06T10:28:44.922Z,-0.23
2019-02-06T10:29:53.012Z,-0.19
2019-02-06T10:31:01.059Z,-0.10
2019-02-06T10:32:09.633Z,-0.10
2019-02-06T10:33:18.777Z,0.02
2019-02-06T10:34:25.418Z,-0.14
2019-02-06T10:35:33.328Z,-0.07
2019-02-06T10:36:41.313Z,0.08
2019-02-06T10:37:49.421Z,0.03
2019-02-06T10:38:57.432Z,0.03
2019-02-06T10:40:05.814Z,0.00
2019-02-06T10:41:13.644Z,-0.01
2019-02-06T10:42:21.645Z,0.08
2019-02-06T10:43:31.856Z,0.04
2019-02-06T10:44:37.741Z,0.02
2019-02-06T10:45:45.789Z,0.10
2019-02-06T10:46:53.996Z,0.20
2019-02-06T10:48:01.926Z,0.23
2019-02-06T10:49:09.970Z,0.17
2019-02-06T10:50:18.049Z,0.23
2019-02-06T10:51:26.539Z,0.26
2019-02-06T10:52:34.114Z,0.29
2019-02-06T10:53:42.316Z,0.28
2019-02-06T10:54:50.703Z,0.28
2019-02-06T10:55:58.309Z,0.18
2019-02-06T10:57:06.570Z,0.10
2019-02-06T10:58:14.495Z,0.11
2019-02-06T10:59:22.475Z,0.11
2019-02-06T11:00:30.702Z,0.29
2019-02-06T11:01:38.752Z,0.36
2019-02-06T11:02:46.667Z,0.21
2019-02-06T11:03:54.701Z,0.14
2019-02-06T11:05:02.771Z,0.15
2019-02-06T11:06:10.849Z,0.10
2019-02-06T11:07:18.937Z,0.23
2019-02-06T11:08:27.004Z,0.28
2019-02-06T11:09:45.700Z,0.36
2019-02-06T11:10:43.078Z,0.51
2019-02-06T11:11:51.109Z,0.65
2019-02-06T11:12:59.196Z,0.72
2019-02-06T11:14:07.236Z,0.76
2019-02-06T11:15:15.295Z,0.93
2019-02-06T11:16:23.387Z,0.79
2019-02-06T11:17:31.396Z,0.91
2019-02-06T11:18:39.467Z,0.94
2019-02-06T11:19:47.524Z,0.97
2019-02-06T11:20:55.606Z,1.06
2019-02-06T11:22:03.666Z,1.04
2019-02-06T11:23:11.684Z,1.11
2019-02-06T11:24:19.806Z,1.05
2019-02-06T11:25:27.868Z,1.12
2019-02-06T11:26:35.970Z,1.06
2019-02-06T11:27:43.922Z,1.06
2019-02-06T11:28:52.026Z,1.04
2019-02-06T11:30:00.098Z,1.11
2019-02-06T11:31:08.175Z,1.12
2019-02-06T11:32:16.209Z,1.08
2019-02-06T11:33:24.227Z,1.08
2019-02-06T11:34:32.283Z,0.97
2019-02-06T11:35:40.768Z,1.04
2019-02-06T11:36:48.536Z,1.09
2019-02-06T11:37:56.479Z,1.18
2019-02-06T11:39:05.046Z,1.20
2019-02-06T11:40:15.193Z,1.34
2019-02-06T11:41:20.781Z,1.36
2019-02-06T11:42:28.754Z,1.42
2019-02-06T11:43:36.765Z,1.51
2019-02-06T11:44:44.820Z,1.59
2019-02-06T11:45:52.921Z,1.65
2019-02-06T11:47:00.908Z,1.79
2019-02-06T11:48:09.014Z,1.79
2019-02-06T11:49:17.423Z,1.79
2019-02-06T11:50:25.142Z,1.90
2019-02-06T11:51:33.211Z,1.87
2019-02-06T11:52:41.245Z,2.07
2019-02-06T11:53:49.308Z,2.03
2019-02-06T11:54:57.398Z,1.91
2019-02-06T11:56:05.507Z,1.95
2019-02-06T11:57:13.495Z,2.03
2019-02-06T11:58:21.792Z,2.12
2019-02-06T11:59:29.597Z,2.05
2019-02-06T12:00:38.066Z,2.05
2019-02-06T12:01:45.992Z,2.02
2019-02-06T12:02:54.261Z,1.99
2019-02-06T12:04:01.814Z,1.98
2019-02-06T12:05:09.931Z,2.03
2019-02-06T12:06:17.964Z,2.18
2019-02-06T12:07:26.013Z,2.14
2019-02-06T12:08:34.061Z,2.23
2019-02-06T12:09:42.099Z,2.18
2019-02-06T12:10:50.212Z,2.23
2019-02-06T12:11:58.292Z,2.24
2019-02-06T12:13:06.859Z,2.18
2019-02-06T12:14:14.863Z,2.17
2019-02-06T12:15:22.979Z,2.20
2019-02-06T12:16:30.610Z,1.98
2019-02-06T12:17:38.581Z,1.90
2019-02-06T12:18:46.654Z,1.95
2019-02-06T12:19:54.702Z,2.03
2019-02-06T12:21:03.106Z,2.00
2019-02-06T12:22:10.788Z,1.88
2019-02-06T12:23:19.044Z,1.88
2019-02-06T12:24:26.923Z,1.80
2019-02-06T12:25:35.090Z,1.81
2019-02-06T12:26:43.079Z,1.83
2019-02-06T12:27:51.304Z,1.68
2019-02-06T12:28:59.647Z,1.68
2019-02-06T12:30:07.216Z,1.77
2019-02-06T12:31:15.317Z,1.87
2019-02-06T12:32:23.310Z,2.03
2019-02-06T12:33:31.453Z,1.88
2019-02-06T12:34:39.627Z,1.68
2019-02-06T12:35:47.521Z,1.42
2019-02-06T12:36:55.825Z,1.22
2019-02-06T12:38:03.753Z,1.16
2019-02-06T12:39:11.727Z,1.14
2019-02-06T12:40:21.826Z,1.20
2019-02-06T12:41:28.067Z,1.14
2019-02-06T12:42:35.869Z,1.30
2019-02-06T12:43:44.056Z,1.33
2019-02-06T12:44:52.305Z,1.48
2019-02-06T12:46:00.079Z,1.52
2019-02-06T12:47:08.096Z,1.68
2019-02-06T12:48:16.147Z,1.69
2019-02-06T12:49:24.230Z,1.76
2019-02-06T12:50:32.267Z,1.72
2019-02-06T12:51:40.392Z,1.77
2019-02-06T12:52:48.813Z,1.86
2019-02-06T12:53:56.475Z,1.91
2019-02-06T12:55:04.918Z,1.91
2019-02-06T12:56:12.970Z,1.68
2019-02-06T12:57:20.640Z,1.47
2019-02-06T12:58:28.671Z,1.42
2019-02-06T12:59:36.735Z,1.54
2019-02-06T13:00:44.791Z,1.51
2019-02-06T13:01:52.860Z,1.55
2019-02-06T13:03:00.937Z,1.47
2019-02-06T13:04:09.080Z,1.47
2019-02-06T13:05:17.082Z,1.48
2019-02-06T13:06:25.074Z,1.51
2019-02-06T13:07:33.131Z,1.50
2019-02-06T13:08:41.208Z,1.58
2019-02-06T13:09:49.269Z,1.66
2019-02-06T13:10:57.543Z,1.68
2019-02-06T13:12:05.386Z,1.70
2019-02-06T13:13:13.418Z,1.68
2019-02-06T13:14:21.476Z,1.66
2019-02-06T13:15:29.538Z,1.63
2019-02-06T13:16:37.612Z,1.52
2019-02-06T13:17:45.705Z,1.55
2019-02-06T13:18:53.759Z,1.69
2019-02-06T13:20:01.970Z,1.84
2019-02-06T13:21:10.035Z,1.91
2019-02-06T13:22:18.126Z,1.88
2019-02-06T13:23:25.956Z,1.98
2019-02-06T13:24:34.530Z,2.03
2019-02-06T13:25:42.077Z,2.25
2019-02-06T13:26:50.176Z,2.24
2019-02-06T13:27:58.214Z,2.21
2019-02-06T13:29:06.274Z,2.28
2019-02-06T13:30:14.349Z,2.36
2019-02-06T13:31:22.424Z,2.30
2019-02-06T13:32:30.427Z,2.21
2019-02-06T13:33:38.497Z,2.28
2019-02-06T13:34:46.579Z,2.23
2019-02-06T13:35:54.928Z,2.20
2019-02-06T13:37:02.682Z,2.17
2019-02-06T13:38:10.717Z,2.23
2019-02-06T13:39:18.879Z,2.03
2019-02-06T13:40:26.871Z,1.95
2019-02-06T13:41:35.468Z,1.95
2019-02-06T13:42:42.959Z,1.95
2019-02-06T13:43:51.199Z,1.93
2019-02-06T13:44:59.537Z,1.88
2019-02-06T13:46:07.160Z,1.98
2019-02-06T13:47:15.538Z,2.10
2019-02-06T13:48:23.257Z,2.05
2019-02-06T13:49:31.634Z,2.03
2019-02-06T13:50:39.367Z,2.00
2019-02-06T13:51:47.719Z,1.93
2019-02-06T13:52:55.539Z,1.95
2019-02-06T13:54:03.627Z,1.91
2019-02-06T13:55:14.442Z,1.77
2019-02-06T13:56:19.674Z,1.76
2019-02-06T13:57:33.654Z,1.79
2019-02-06T13:58:35.761Z,1.88
2019-02-06T13:59:43.838Z,2.02
2019-02-06T14:00:52.543Z,2.03
2019-02-06T14:01:59.942Z,2.06
2019-02-06T14:03:08.015Z,2.12
2019-02-06T14:05:24.131Z,2.14
2019-02-06T14:06:32.160Z,2.14
2019-02-06T14:07:40.266Z,2.16
2019-02-06T14:08:48.302Z,2.10
2019-02-06T14:09:56.371Z,2.18
2019-02-06T14:11:04.424Z,2.17
2019-02-06T14:12:13.459Z,2.18
2019-02-06T14:13:20.520Z,2.20
2019-02-06T14:14:28.603Z,2.25
2019-02-06T14:15:36.644Z,2.31
2019-02-06T14:16:44.688Z,2.23
2019-02-06T14:17:52.767Z,2.05
2019-02-06T14:19:00.846Z,2.06
2019-02-06T14:20:08.873Z,1.90
2019-02-06T14:21:16.942Z,1.99
2019-02-06T14:22:24.973Z,2.03
2019-02-06T14:23:33.115Z,1.87
2019-02-06T14:24:41.110Z,2.03
2019-02-06T14:25:49.186Z,1.83
2019-02-06T14:26:57.249Z,1.93
2019-02-06T14:28:05.267Z,1.91
2019-02-06T14:29:13.368Z,1.87
2019-02-06T14:30:21.381Z,1.98
2019-02-06T14:31:29.473Z,1.99
2019-02-06T14:32:37.516Z,2.06
2019-02-06T14:33:45.570Z,1.99
2019-02-06T14:34:53.652Z,1.99
2019-02-06T14:36:01.689Z,2.02
2019-02-06T14:37:10.232Z,1.99
2019-02-06T14:38:17.785Z,1.88
2019-02-06T14:39:25.865Z,1.90
2019-02-06T14:40:33.918Z,1.76
2019-02-06T14:41:41.952Z,1.70
2019-02-06T14:42:50.063Z,1.62
2019-02-06T14:43:58.091Z,1.62
2019-02-06T14:45:06.953Z,1.48